Time;durP1;ratioP1;P1;durP2;ratioP2;P2;SDS_P1;SDS_P2;PMS_P1;PMS_P2;Temp;Humidity;BMP_temperature;BMP_pressure;BME280_temperature;BME280_humidity;BME280_pressure;Samples;Min_cycle;Max_cycle;Signal;HPM_P1;HPM_P2
2023/10/14 08:03:26;;;;;;;0.50;0.50;;;15.90;99.90;;;;;;5071705;28;20549;-76
2023/10/14 08:05:59;;;;;;;2.20;0.40;;;15.90;99.90;;;;;;5071580;28;20205;-76
2023/10/14 08:08:30;;;;;;;0.15;0.15;;;15.90;99.90;;;;;;5071078;28;20248;-77
2023/10/14 08:10:57;;;;;;;1.65;0.35;;;16.10;99.90;;;;;;5071806;28;20193;-77
2023/10/14 08:13:24;;;;;;;0.43;0.30;;;16.20;99.90;;;;;;5071343;28;20204;-77
2023/10/14 08:15:51;;;;;;;0.40;0.22;;;16.30;99.90;;;;;;5070043;28;20224;-77
2023/10/14 08:18:19;;;;;;;0.38;0.38;;;16.40;99.90;;;;;;5070296;28;20178;-78
2023/10/14 08:20:45;;;;;;;0.20;0.20;;;16.30;99.90;;;;;;5070242;28;20188;-77
2023/10/14 08:23:12;;;;;;;0.30;0.20;;;16.30;99.90;;;;;;5070540;28;20672;-77
2023/10/14 08:25:39;;;;;;;0.70;0.70;;;16.20;99.90;;;;;;5069822;28;20272;-77
2023/10/14 08:28:08;;;;;;;0.90;0.68;;;16.40;99.90;;;;;;5069508;28;20181;-77
2023/10/14 08:30:45;;;;;;;0.30;0.30;;;16.30;99.90;;;;;;5069099;28;20213;-77
2023/10/14 08:33:11;;;;;;;0.40;0.40;;;16.40;99.90;;;;;;5069125;28;20205;-78
2023/10/14 08:35:41;;;;;;;0.10;0.10;;;16.40;99.90;;;;;;5069351;28;20174;-78
2023/10/14 08:38:11;;;;;;;0.30;0.30;;;16.40;99.90;;;;;;5070093;28;20166;-75
2023/10/14 08:40:37;;;;;;;0.20;0.20;;;16.40;99.90;;;;;;5069791;28;20178;-74
2023/10/14 08:43:06;;;;;;;0.20;0.20;;;16.40;99.90;;;;;;5068777;28;20185;-75
2023/10/14 08:45:54;;;;;;;0.68;0.38;;;16.30;99.90;;;;;;5069539;28;20178;-75
2023/10/14 08:48:26;;;;;;;0.32;0.32;;;16.30;99.90;;;;;;5070693;28;20169;-75
2023/10/14 08:50:57;;;;;;;0.77;0.70;;;16.30;99.90;;;;;;5070073;28;20196;-75
2023/10/14 08:53:30;;;;;;;1.65;1.55;;;16.30;99.90;;;;;;5068579;28;20714;-77
2023/10/14 08:56:27;;;;;;;10.32;1.95;;;16.20;99.90;;;;;;5069281;28;20197;-75
2023/10/14 08:59:04;;;;;;;0.35;0.35;;;16.20;99.90;;;;;;5069069;28;20198;-75
2023/10/14 09:02:04;;;;;;;1.83;1.73;;;16.20;99.90;;;;;;5068309;28;20268;-75
2023/10/14 09:04:45;;;;;;;3.33;1.00;;;16.40;99.90;;;;;;5068130;28;20200;-75
2023/10/14 09:07:14;;;;;;;0.63;0.60;;;16.20;99.90;;;;;;5068112;28;20368;-75
2023/10/14 09:09:40;;;;;;;1.35;0.73;;;16.10;99.90;;;;;;5068134;28;20173;-75
2023/10/14 09:12:13;;;;;;;0.95;0.75;;;16.10;99.90;;;;;;5069689;28;20185;-75
2023/10/14 09:14:39;;;;;;;0.82;0.80;;;16.10;99.90;;;;;;5056485;28;20174;-75
2023/10/14 09:17:08;;;;;;;0.73;0.73;;;15.90;99.90;;;;;;5055680;28;20225;-75
2023/10/14 09:19:47;;;;;;;0.70;0.70;;;15.80;99.90;;;;;;5055999;28;20261;-75
2023/10/14 09:22:25;;;;;;;0.60;0.60;;;15.80;99.90;;;;;;5054883;28;20268;-75
2023/10/14 09:24:53;;;;;;;1.95;0.73;;;16.00;99.90;;;;;;5055790;28;20178;-75
2023/10/14 09:27:26;;;;;;;1.02;0.70;;;16.10;99.90;;;;;;5054696;28;20202;-75
2023/10/14 09:29:56;;;;;;;1.40;0.77;;;15.90;99.90;;;;;;5055869;28;20181;-76
2023/10/14 09:32:22;;;;;;;0.98;0.63;;;15.60;99.90;;;;;;5055748;28;20265;-75
2023/10/14 09:34:51;;;;;;;3.95;0.93;;;15.60;99.90;;;;;;5055550;28;20323;-75
2023/10/14 09:37:17;;;;;;;1.40;0.75;;;15.60;99.90;;;;;;5054669;28;20591;-75
2023/10/14 09:39:48;;;;;;;2.67;0.75;;;15.60;99.90;;;;;;5054783;28;20170;-75
2023/10/14 09:42:15;;;;;;;1.77;1.20;;;15.80;99.90;;;;;;5055715;28;20154;-75
2023/10/14 09:44:45;;;;;;;2.72;1.13;;;16.10;99.90;;;;;;5054656;28;20182;-75
2023/10/14 09:47:19;;;;;;;1.65;0.95;;;16.30;99.90;;;;;;5054434;28;20226;-75
2023/10/14 09:49:46;;;;;;;0.95;0.93;;;16.20;99.90;;;;;;5048132;28;20190;-75
2023/10/14 09:52:16;;;;;;;5.50;1.02;;;16.20;99.90;;;;;;5048551;28;20273;-75
2023/10/14 09:54:42;;;;;;;2.92;1.10;;;16.00;99.90;;;;;;5053691;28;20166;-75
2023/10/14 09:57:12;;;;;;;1.50;1.00;;;15.90;99.90;;;;;;5034300;28;20289;-76
2023/10/14 09:59:44;;;;;;;5.22;1.77;;;15.80;99.90;;;;;;5035070;28;20199;-75
2023/10/14 10:02:11;;;;;;;5.07;4.53;;;15.80;99.90;;;;;;5034240;28;20167;-75
2023/10/14 10:04:45;;;;;;;7.13;4.90;;;15.90;99.90;;;;;;5034511;28;20197;-77
2023/10/14 10:07:44;;;;;;;7.38;5.50;;;16.00;99.90;;;;;;5045186;28;20202;-76
2023/10/14 10:10:19;;;;;;;4.05;2.15;;;16.40;99.90;;;;;;5054894;28;20181;-77
2023/10/14 10:12:52;;;;;;;3.42;1.65;;;16.50;99.90;;;;;;5053656;28;20197;-76
2023/10/14 10:15:19;;;;;;;5.28;2.35;;;16.70;99.90;;;;;;5053278;28;20181;-77
2023/10/14 10:17:56;;;;;;;3.97;2.00;;;17.00;99.90;;;;;;5053965;28;20198;-77
2023/10/14 10:20:30;;;;;;;3.03;1.88;;;17.10;99.90;;;;;;5054871;28;20170;-77
2023/10/14 10:22:58;;;;;;;4.68;1.83;;;17.00;99.90;;;;;;5053796;28;20181;-77
2023/10/14 10:25:52;;;;;;;2.65;1.58;;;17.10;99.90;;;;;;5053108;28;20170;-77
2023/10/14 10:28:27;;;;;;;3.13;1.52;;;17.10;99.90;;;;;;5036748;28;20313;-77
2023/10/14 10:31:12;;;;;;;3.88;1.80;;;17.00;99.90;;;;;;5042154;28;20170;-75
2023/10/14 10:33:56;;;;;;;4.40;1.75;;;17.10;99.90;;;;;;5034066;28;20170;-75
2023/10/14 10:36:33;;;;;;;2.97;1.50;;;16.90;99.90;;;;;;5033563;28;20194;-75
2023/10/14 10:39:16;;;;;;;5.18;2.05;;;16.90;99.90;;;;;;5033671;28;20174;-77
2023/10/14 10:41:42;;;;;;;5.40;2.08;;;17.10;99.90;;;;;;5034620;28;20214;-77
2023/10/14 10:44:11;;;;;;;6.28;1.85;;;17.30;99.90;;;;;;5033389;28;20186;-77
2023/10/14 10:46:41;;;;;;;5.10;2.38;;;17.50;99.90;;;;;;5033222;28;20692;-76
2023/10/14 10:49:10;;;;;;;5.40;2.42;;;17.60;99.90;;;;;;5033252;28;20261;-77
2023/10/14 10:51:42;;;;;;;6.93;1.92;;;17.80;99.90;;;;;;5035613;28;20252;-76
2023/10/14 10:54:10;;;;;;;4.93;1.95;;;17.80;99.90;;;;;;5034199;28;20186;-76
2023/10/14 10:56:36;;;;;;;5.38;1.73;;;17.40;99.90;;;;;;5033173;28;20203;-76
2023/10/14 10:59:04;;;;;;;7.35;2.20;;;17.20;99.90;;;;;;5033391;28;20190;-75
2023/10/14 11:01:31;;;;;;;4.35;1.90;;;17.10;99.20;;;;;;5033719;28;20266;-77
2023/10/14 11:04:17;;;;;;;4.88;2.22;;;17.00;99.40;;;;;;5033551;28;20190;-84
2023/10/14 11:06:43;;;;;;;5.00;2.22;;;17.00;99.60;;;;;;5033176;28;20695;-76
2023/10/14 11:09:13;;;;;;;6.10;2.58;;;17.10;98.40;;;;;;5036393;28;20178;-76
2023/10/14 11:11:38;;;;;;;4.93;2.22;;;17.10;98.80;;;;;;5042194;28;20201;-76
2023/10/14 11:14:17;;;;;;;4.20;1.90;;;17.00;97.20;;;;;;5053204;28;20269;-76
2023/10/14 11:16:52;;;;;;;6.45;2.33;;;16.90;97.60;;;;;;5037690;28;20193;-76
2023/10/14 11:19:20;;;;;;;11.30;2.10;;;16.70;95.30;;;;;;5044937;28;20186;-78
2023/10/14 11:21:47;;;;;;;6.65;2.55;;;16.50;95.10;;;;;;5033863;28;20182;-77
2023/10/14 11:24:13;;;;;;;9.05;2.03;;;16.50;95.70;;;;;;5047472;28;20216;-78
2023/10/14 11:26:38;;;;;;;7.50;2.00;;;16.50;95.70;;;;;;5053827;28;20206;-78
2023/10/14 11:29:06;;;;;;;8.43;2.45;;;16.60;94.60;;;;;;5041428;28;20186;-76
2023/10/14 11:31:32;;;;;;;6.55;2.45;;;16.30;94.20;;;;;;5032476;28;20301;-76
2023/10/14 11:34:03;;;;;;;5.13;1.88;;;15.90;94.30;;;;;;5034021;28;20748;-76
2023/10/14 11:36:29;;;;;;;7.53;2.20;;;15.50;94.90;;;;;;5032339;28;20304;-76
2023/10/14 11:39:01;;;;;;;6.35;2.63;;;15.40;96.00;;;;;;5033612;28;20175;-76
2023/10/14 11:41:27;;;;;;;6.13;1.98;;;15.30;95.50;;;;;;5032453;28;20166;-76
2023/10/14 11:43:53;;;;;;;5.75;1.90;;;15.40;95.80;;;;;;5032703;28;20179;-76
2023/10/14 11:46:19;;;;;;;13.20;2.58;;;15.70;95.20;;;;;;5032293;28;20310;-76
2023/10/14 11:48:46;;;;;;;7.63;2.20;;;15.80;93.00;;;;;;5032419;28;20175;-75
2023/10/14 11:51:16;;;;;;;7.53;2.17;;;15.90;91.90;;;;;;5032224;28;20183;-75
2023/10/14 11:53:43;;;;;;;6.28;2.22;;;15.80;93.20;;;;;;5039501;28;20180;-75
2023/10/14 11:56:18;;;;;;;7.38;2.33;;;15.90;92.30;;;;;;5049312;28;20198;-75
2023/10/14 11:58:45;;;;;;;6.32;2.35;;;16.00;92.60;;;;;;5034503;28;20173;-77
2023/10/14 12:01:11;;;;;;;4.13;2.08;;;16.00;92.80;;;;;;5032355;28;20564;-76
2023/10/14 12:03:37;;;;;;;7.22;2.47;;;15.80;93.20;;;;;;5032180;28;20282;-75
2023/10/14 12:06:04;;;;;;;4.70;2.50;;;15.70;92.70;;;;;;5032723;28;20658;-76
2023/10/14 12:08:32;;;;;;;7.68;2.00;;;15.50;92.40;;;;;;5032391;28;20170;-76
2023/10/14 12:10:59;;;;;;;4.70;2.13;;;15.70;92.20;;;;;;5032357;28;20170;-76
2023/10/14 12:13:26;;;;;;;7.03;2.10;;;15.80;91.70;;;;;;5032252;28;20210;-76
2023/10/14 12:15:51;;;;;;;6.05;2.05;;;15.90;92.90;;;;;;5033882;28;20191;-76
2023/10/14 12:21:41;;;;;;;4.78;2.30;;;16.20;92.00;;;;;;5033867;28;20182;-75
2023/10/14 12:24:09;;;;;;;7.70;2.50;;;16.50;91.80;;;;;;5032262;28;20179;-75
2023/10/14 12:26:42;;;;;;;5.38;2.20;;;16.60;91.00;;;;;;5032073;28;20199;-77
2023/10/14 12:29:09;;;;;;;6.82;2.58;;;17.00;91.20;;;;;;5033230;28;20162;-78
2023/10/14 12:31:38;;;;;;;6.90;2.33;;;17.30;90.90;;;;;;5033108;28;20207;-78
2023/10/14 12:34:04;;;;;;;5.55;2.15;;;17.40;90.30;;;;;;5034072;28;20183;-77
2023/10/14 12:36:29;;;;;;;6.18;2.25;;;17.30;88.50;;;;;;5032831;28;20202;-75
2023/10/14 12:38:55;;;;;;;5.85;2.35;;;17.30;87.40;;;;;;5033327;28;20647;-75
2023/10/14 12:41:24;;;;;;;7.85;3.00;;;17.20;89.10;;;;;;5032788;28;20171;-75
2023/10/14 12:43:55;;;;;;;6.43;2.75;;;17.50;90.10;;;;;;5040726;28;20174;-77
2023/10/14 12:46:22;;;;;;;8.55;2.70;;;17.40;88.10;;;;;;5046277;28;20202;-77
2023/10/14 12:48:50;;;;;;;7.43;3.30;;;17.50;89.30;;;;;;5060542;28;20196;-76
2023/10/14 12:51:35;;;;;;;10.13;3.13;;;17.50;89.80;;;;;;5075445;28;20192;-75
2023/10/14 12:54:03;;;;;;;7.13;2.92;;;17.50;88.10;;;;;;5075534;28;20204;-75
2023/10/14 12:56:30;;;;;;;7.65;2.83;;;17.40;87.90;;;;;;5076997;28;20266;-74
2023/10/14 12:58:58;;;;;;;6.68;2.60;;;17.40;88.20;;;;;;5071976;28;20179;-74
2023/10/14 13:01:24;;;;;;;9.10;2.65;;;17.20;86.40;;;;;;5047115;28;20205;-74
2023/10/14 13:03:56;;;;;;;6.57;2.50;;;16.90;87.00;;;;;;5035715;28;20264;-74
2023/10/14 13:06:24;;;;;;;6.53;2.60;;;16.50;86.10;;;;;;5044082;28;20199;-73
2023/10/14 13:09:00;;;;;;;4.97;2.30;;;16.20;86.80;;;;;;5051413;28;20162;-75
2023/10/14 13:11:30;;;;;;;4.78;2.08;;;16.10;88.00;;;;;;5052780;28;20163;-75
2023/10/14 13:13:56;;;;;;;6.22;1.98;;;16.00;90.10;;;;;;5035530;28;20665;-76
2023/10/14 13:16:25;;;;;;;17.63;4.00;;;16.10;90.30;;;;;;5035183;28;20199;-76
2023/10/14 13:18:53;;;;;;;7.65;2.50;;;16.10;89.50;;;;;;5036440;28;20675;-76
2023/10/14 13:21:21;;;;;;;5.68;2.60;;;16.30;90.30;;;;;;5037653;28;20579;-76
2023/10/14 13:23:47;;;;;;;20.40;8.68;;;16.40;90.50;;;;;;5055985;28;20182;-84
2023/10/14 13:26:16;;;;;;;6.10;2.65;;;16.60;92.10;;;;;;5056450;28;20213;-77
2023/10/14 13:28:46;;;;;;;6.95;2.30;;;16.90;90.70;;;;;;5047628;28;20177;-77
2023/10/14 13:31:15;;;;;;;5.95;2.55;;;16.80;89.80;;;;;;5035192;28;20171;-76
2023/10/14 13:33:46;;;;;;;8.48;2.45;;;16.90;89.30;;;;;;5034724;28;20175;-77
2023/10/14 13:36:13;;;;;;;6.30;2.92;;;16.80;87.80;;;;;;5034804;28;20197;-76
2023/10/14 13:38:39;;;;;;;6.25;2.50;;;16.80;88.90;;;;;;5034869;28;20214;-77
2023/10/14 13:41:07;;;;;;;6.43;2.45;;;16.80;88.90;;;;;;5052129;28;20582;-76
2023/10/14 13:43:33;;;;;;;5.15;1.95;;;16.70;88.20;;;;;;5055101;28;20541;-76
2023/10/14 13:45:58;;;;;;;6.45;2.20;;;16.60;89.40;;;;;;5055522;28;20202;-76
2023/10/14 13:48:24;;;;;;;5.65;1.83;;;16.50;90.10;;;;;;5055923;28;20174;-77
2023/10/14 13:50:54;;;;;;;7.10;2.30;;;16.20;89.90;;;;;;5039455;28;20229;-76
2023/10/14 13:53:21;;;;;;;6.47;2.13;;;16.10;90.40;;;;;;5034541;28;20695;-76
2023/10/14 13:55:54;;;;;;;6.18;2.15;;;16.00;90.20;;;;;;5034614;28;20195;-76
2023/10/14 13:58:21;;;;;;;8.27;2.58;;;15.80;90.70;;;;;;5034515;28;20541;-76
2023/10/14 14:00:49;;;;;;;8.40;2.28;;;15.60;90.50;;;;;;5049235;28;20178;-78
2023/10/14 14:03:16;;;;;;;7.75;2.30;;;15.40;90.80;;;;;;5055080;28;20225;-77
2023/10/14 14:05:51;;;;;;;6.60;1.92;;;15.30;90.80;;;;;;5054450;28;20655;-77
2023/10/14 14:08:18;;;;;;;7.82;2.40;;;15.40;90.30;;;;;;5054740;28;20178;-77
2023/10/14 14:10:44;;;;;;;6.15;2.00;;;15.50;90.80;;;;;;5041037;28;20183;-75
2023/10/14 14:13:16;;;;;;;7.20;2.10;;;15.70;90.60;;;;;;5035276;28;20202;-77
2023/10/14 14:15:48;;;;;;;5.45;2.05;;;15.90;89.80;;;;;;5035184;28;20167;-76
2023/10/14 14:18:15;;;;;;;10.52;2.60;;;15.90;89.20;;;;;;5034201;28;20175;-76
2023/10/14 14:20:40;;;;;;;7.03;2.08;;;15.70;89.70;;;;;;5034448;28;20699;-76
2023/10/14 14:23:07;;;;;;;14.52;2.97;;;15.60;90.30;;;;;;5033785;28;20186;-76
2023/10/14 14:25:33;;;;;;;4.97;2.17;;;15.50;89.80;;;;;;5034024;28;20203;-75
2023/10/14 14:28:00;;;;;;;7.07;2.30;;;15.40;89.90;;;;;;5033984;28;20195;-75
2023/10/14 14:30:27;;;;;;;9.32;2.50;;;15.40;89.90;;;;;;5047650;28;20649;-76
2023/10/14 14:32:56;;;;;;;7.45;2.40;;;15.40;90.60;;;;;;5054969;28;20209;-77
2023/10/14 14:35:31;;;;;;;8.68;2.35;;;15.40;90.00;;;;;;5053971;28;20205;-76
2023/10/14 14:37:58;;;;;;;7.95;2.28;;;15.30;90.80;;;;;;5040338;28;20174;-76
2023/10/14 14:40:25;;;;;;;9.35;2.20;;;15.20;90.80;;;;;;5053232;28;20645;-76
2023/10/14 14:42:55;;;;;;;6.50;2.30;;;15.00;90.90;;;;;;5053431;28;20205;-76
2023/10/14 14:45:23;;;;;;;7.20;2.20;;;14.90;91.30;;;;;;5053983;28;20324;-76
2023/10/14 14:47:53;;;;;;;6.88;2.20;;;14.90;90.90;;;;;;5034442;28;20210;-77
2023/10/14 14:50:24;;;;;;;8.18;2.17;;;14.80;91.60;;;;;;5033795;28;20647;-78
2023/10/14 14:52:50;;;;;;;8.50;1.90;;;14.80;91.30;;;;;;5035127;28;20274;-77
2023/10/14 14:55:17;;;;;;;9.30;2.15;;;14.80;91.90;;;;;;5033616;28;20178;-75
2023/10/14 14:57:54;;;;;;;9.30;2.17;;;14.70;92.30;;;;;;5051436;28;20194;-76
2023/10/14 15:00:28;;;;;;;8.23;2.45;;;14.60;92.00;;;;;;5053104;28;20174;-76
2023/10/14 15:03:05;;;;;;;5.35;2.00;;;14.50;91.90;;;;;;5053831;28;20193;-77
2023/10/14 15:05:34;;;;;;;7.63;2.25;;;14.40;92.00;;;;;;5047047;28;20705;-76
2023/10/14 15:08:01;;;;;;;10.85;2.35;;;14.20;92.70;;;;;;5047068;28;20232;-75
2023/10/14 15:10:27;;;;;;;6.60;2.22;;;14.10;93.00;;;;;;5051980;28;20575;-76
2023/10/14 15:12:54;;;;;;;6.78;2.13;;;14.10;93.20;;;;;;5033266;28;20588;-77
2023/10/14 15:15:20;;;;;;;5.70;2.30;;;14.00;92.80;;;;;;5034177;28;20182;-76
2023/10/14 15:17:51;;;;;;;6.40;2.13;;;13.90;93.10;;;;;;5032960;28;20589;-76
2023/10/14 15:20:17;;;;;;;5.05;2.17;;;13.90;93.10;;;;;;5033622;28;20178;-81
2023/10/14 15:22:54;;;;;;;8.45;2.50;;;14.00;93.30;;;;;;5033307;28;20265;-75
2023/10/14 15:25:28;;;;;;;5.80;2.05;;;14.10;93.10;;;;;;5033942;28;20163;-75
2023/10/14 15:27:54;;;;;;;8.55;2.50;;;14.20;92.90;;;;;;5032278;28;20175;-76
2023/10/14 15:30:24;;;;;;;7.00;2.30;;;14.30;92.40;;;;;;5039746;28;20174;-76
2023/10/14 15:32:49;;;;;;;8.25;2.55;;;14.40;92.70;;;;;;5050253;28;20711;-76
2023/10/14 15:35:20;;;;;;;8.00;2.47;;;14.50;92.90;;;;;;5032155;28;20172;-76
2023/10/14 15:37:46;;;;;;;8.27;2.38;;;14.50;93.10;;;;;;5033655;28;20210;-76
2023/10/14 15:40:14;;;;;;;8.35;2.42;;;14.50;93.20;;;;;;5033505;28;20178;-76
2023/10/14 15:42:43;;;;;;;7.53;2.47;;;14.50;93.00;;;;;;5038527;28;20596;-76
2023/10/14 15:45:15;;;;;;;8.60;2.17;;;14.40;92.90;;;;;;5053673;28;20178;-77
2023/10/14 15:47:46;;;;;;;4.82;1.90;;;14.20;93.00;;;;;;5053861;28;20221;-76
2023/10/14 15:50:13;;;;;;;7.18;2.28;;;14.00;92.60;;;;;;5052633;28;20252;-77
2023/10/14 15:52:42;;;;;;;6.05;2.00;;;13.90;92.80;;;;;;5048511;28;20198;-76
2023/10/14 15:55:08;;;;;;;7.53;2.25;;;13.70;92.80;;;;;;5033271;28;20183;-76
2023/10/14 15:57:33;;;;;;;6.43;2.83;;;13.60;93.30;;;;;;5032615;28;20747;-76
2023/10/14 15:59:59;;;;;;;6.50;2.20;;;13.50;93.70;;;;;;5032756;28;20167;-76
2023/10/14 16:02:25;;;;;;;6.13;2.38;;;13.40;94.00;;;;;;5032858;28;20174;-77
2023/10/14 16:04:52;;;;;;;6.28;2.03;;;13.30;94.20;;;;;;5033438;28;20540;-76
2023/10/14 16:07:17;;;;;;;7.72;2.15;;;13.30;94.50;;;;;;5033661;28;20195;-76
2023/10/14 16:09:43;;;;;;;8.98;2.63;;;13.20;94.50;;;;;;5032792;28;20637;-76
2023/10/14 16:12:09;;;;;;;8.20;2.38;;;13.20;94.20;;;;;;5032418;28;20589;-76
2023/10/14 16:14:34;;;;;;;5.80;2.35;;;13.10;94.50;;;;;;5033968;28;20173;-76
2023/10/14 16:17:00;;;;;;;5.93;2.10;;;13.10;94.70;;;;;;5032819;28;20194;-76
2023/10/14 16:19:26;;;;;;;6.47;2.00;;;13.00;94.50;;;;;;5033480;28;20179;-76
2023/10/14 16:21:55;;;;;;;7.18;2.35;;;13.00;94.70;;;;;;5032507;28;20278;-76
2023/10/14 16:24:21;;;;;;;6.82;2.40;;;12.90;94.60;;;;;;5052493;28;20192;-77
2023/10/14 16:26:47;;;;;;;9.85;3.08;;;13.00;94.60;;;;;;5056007;28;20719;-78
2023/10/14 16:29:12;;;;;;;6.80;2.53;;;13.00;94.80;;;;;;5056743;28;20203;-81
2023/10/14 16:31:38;;;;;;;6.50;2.55;;;12.90;94.90;;;;;;5046049;28;20208;-82
2023/10/14 16:34:04;;;;;;;8.32;2.50;;;12.90;94.90;;;;;;5055911;28;20206;-82
2023/10/14 16:36:30;;;;;;;7.68;2.53;;;13.00;95.20;;;;;;5050328;28;20241;-75
2023/10/14 16:38:55;;;;;;;6.13;2.17;;;13.00;95.60;;;;;;5035709;28;20210;-76
2023/10/14 16:41:21;;;;;;;16.13;3.03;;;12.90;94.80;;;;;;5045789;28;20189;-76
2023/10/14 16:43:46;;;;;;;10.23;2.33;;;13.00;94.90;;;;;;5055749;28;20205;-76
2023/10/14 16:46:16;;;;;;;4.15;1.85;;;13.00;95.20;;;;;;5055654;28;20197;-76
2023/10/14 16:48:42;;;;;;;5.20;2.25;;;13.00;95.60;;;;;;5055719;28;20174;-75
2023/10/14 16:51:10;;;;;;;5.57;2.47;;;13.00;95.90;;;;;;5048597;28;20207;-76
2023/10/14 16:53:36;;;;;;;12.35;2.67;;;12.90;95.80;;;;;;5036882;28;20197;-76
2023/10/14 16:56:02;;;;;;;5.05;2.22;;;12.90;96.50;;;;;;5037003;28;20230;-76
2023/10/14 16:58:28;;;;;;;5.78;2.33;;;12.80;96.50;;;;;;5035486;28;20198;-76
2023/10/14 17:00:54;;;;;;;7.60;2.30;;;12.80;96.70;;;;;;5041097;28;20174;-76
2023/10/14 17:03:22;;;;;;;8.95;2.30;;;12.70;97.00;;;;;;5045254;28;20636;-76
2023/10/14 17:05:54;;;;;;;7.72;2.60;;;12.70;96.70;;;;;;5035225;28;20206;-76
2023/10/14 17:08:20;;;;;;;9.25;2.88;;;12.60;96.70;;;;;;5035313;28;20179;-76
2023/10/14 17:10:58;;;;;;;6.72;2.83;;;12.50;96.70;;;;;;5035082;28;20201;-76
2023/10/14 17:13:23;;;;;;;5.90;2.33;;;12.50;96.90;;;;;;5035153;28;20198;-76
2023/10/14 17:15:49;;;;;;;6.57;2.08;;;12.40;97.30;;;;;;5035489;28;20199;-76
2023/10/14 17:18:14;;;;;;;6.35;2.50;;;12.30;97.70;;;;;;5035063;28;20210;-76
2023/10/14 17:20:53;;;;;;;6.82;2.50;;;12.20;97.90;;;;;;5035831;28;20179;-76
2023/10/14 17:23:39;;;;;;;7.82;2.33;;;12.10;97.60;;;;;;5035177;28;20191;-76
2023/10/14 17:26:21;;;;;;;5.97;2.35;;;12.00;98.10;;;;;;5052455;28;20202;-76
2023/10/14 17:28:54;;;;;;;11.82;2.60;;;11.90;98.20;;;;;;5054815;28;20629;-76
2023/10/14 17:31:20;;;;;;;5.95;2.53;;;11.80;98.10;;;;;;5054945;28;20261;-76
2023/10/14 17:33:49;;;;;;;7.38;2.45;;;11.60;98.50;;;;;;5055705;28;20285;-75
2023/10/14 17:37:05;;;;;;;8.38;2.50;;;11.60;98.90;;;;;;5054859;28;20291;-76
2023/10/14 17:39:30;;;;;;;7.90;2.47;;;11.40;99.20;;;;;;5055662;28;20170;-76
2023/10/14 17:41:56;;;;;;;9.90;2.53;;;11.20;99.70;;;;;;5055836;28;20175;-76
2023/10/14 17:44:23;;;;;;;7.68;2.20;;;11.20;99.90;;;;;;5054617;28;20232;-76
2023/10/14 17:46:48;;;;;;;5.93;2.70;;;11.10;99.90;;;;;;5054585;28;20285;-76
2023/10/14 17:49:14;;;;;;;14.82;7.25;;;11.00;99.90;;;;;;5054626;28;20273;-76
2023/10/14 17:51:40;;;;;;;14.70;7.85;;;10.90;99.90;;;;;;5050730;28;20202;-76
2023/10/14 17:54:06;;;;;;;11.55;5.35;;;10.90;99.90;;;;;;5034794;28;20171;-75
2023/10/14 17:56:47;;;;;;;9.43;4.40;;;10.80;99.90;;;;;;5034229;28;20704;-75
2023/10/14 17:59:47;;;;;;;6.38;3.30;;;10.80;99.90;;;;;;5053069;28;20655;-75
2023/10/14 18:02:13;;;;;;;9.75;2.80;;;10.80;99.90;;;;;;5054410;28;20579;-76
2023/10/14 18:04:38;;;;;;;8.63;2.58;;;10.80;99.90;;;;;;5055451;28;20293;-77
2023/10/14 18:07:06;;;;;;;6.57;3.00;;;10.80;99.90;;;;;;5054831;28;20247;-76
2023/10/14 18:09:31;;;;;;;9.98;4.22;;;10.80;99.90;;;;;;5055062;28;20268;-76
2023/10/14 18:11:58;;;;;;;6.13;2.72;;;10.80;99.90;;;;;;5053948;28;20285;-76
2023/10/14 18:14:40;;;;;;;9.00;2.70;;;10.70;99.90;;;;;;5054572;28;20162;-76
2023/10/14 18:17:39;;;;;;;5.47;2.30;;;10.70;99.80;;;;;;5055920;28;20190;-76
2023/10/14 18:20:15;;;;;;;7.75;2.42;;;10.70;99.90;;;;;;5055193;28;20179;-76
2023/10/14 18:22:43;;;;;;;5.30;2.20;;;10.70;99.80;;;;;;5054935;28;20181;-77
2023/10/14 18:25:19;;;;;;;6.82;2.35;;;10.70;99.20;;;;;;5055598;28;20189;-77
2023/10/14 18:27:46;;;;;;;5.80;2.15;;;10.70;99.50;;;;;;5055682;28;20607;-75
2023/10/14 18:30:20;;;;;;;5.13;2.33;;;10.60;99.30;;;;;;5054787;28;20175;-77
2023/10/14 18:32:53;;;;;;;4.90;1.90;;;10.50;99.40;;;;;;5054903;28;20182;-76
2023/10/14 18:35:30;;;;;;;4.35;2.15;;;10.50;99.70;;;;;;5053570;28;20178;-76
2023/10/14 18:37:57;;;;;;;9.05;2.03;;;10.40;99.70;;;;;;5054802;28;20230;-76
2023/10/14 18:40:33;;;;;;;4.75;2.63;;;10.40;99.90;;;;;;5053382;28;20228;-76
2023/10/14 18:43:00;;;;;;;7.57;2.08;;;10.40;99.90;;;;;;5053434;28;20162;-75
2023/10/14 18:45:29;;;;;;;9.73;2.40;;;10.30;99.90;;;;;;5052922;28;20190;-75
2023/10/14 18:48:16;;;;;;;7.28;2.30;;;10.30;99.90;;;;;;5052860;28;20175;-75
2023/10/14 18:50:43;;;;;;;5.53;2.10;;;10.30;99.90;;;;;;5053217;28;20170;-75
2023/10/14 18:53:35;;;;;;;6.75;2.20;;;10.30;99.90;;;;;;5052976;28;20210;-75
2023/10/14 18:56:25;;;;;;;6.50;2.00;;;10.30;99.90;;;;;;5054499;28;20264;-75
2023/10/14 18:58:59;;;;;;;5.90;2.15;;;10.20;99.90;;;;;;5053132;28;20216;-75
2023/10/14 19:01:25;;;;;;;7.47;2.30;;;10.30;99.70;;;;;;5050610;28;20170;-75
2023/10/14 19:03:51;;;;;;;7.90;2.72;;;10.30;99.40;;;;;;5034099;28;20254;-75
2023/10/14 19:06:26;;;;;;;5.00;2.22;;;10.30;99.50;;;;;;5032963;28;20216;-76
2023/10/14 19:08:53;;;;;;;6.05;2.35;;;10.20;99.70;;;;;;5032969;28;20177;-75
2023/10/14 19:11:20;;;;;;;4.78;2.03;;;10.20;99.70;;;;;;5033144;28;20208;-76
2023/10/14 19:14:05;;;;;;;5.95;2.10;;;10.20;99.80;;;;;;5033541;28;20217;-76
2023/10/14 19:16:31;;;;;;;6.10;1.90;;;10.10;99.90;;;;;;5033297;28;20669;-76
2023/10/14 19:18:57;;;;;;;7.80;2.30;;;10.10;99.90;;;;;;5034206;28;20179;-76
2023/10/14 19:21:23;;;;;;;8.57;2.30;;;10.10;99.90;;;;;;5033005;28;20209;-76
2023/10/14 19:23:48;;;;;;;4.70;2.22;;;10.10;99.90;;;;;;5033540;28;20175;-76
2023/10/14 19:26:24;;;;;;;7.55;2.17;;;10.20;99.90;;;;;;5034088;28;20199;-76
2023/10/14 19:29:01;;;;;;;5.97;2.20;;;10.20;99.90;;;;;;5033357;28;20182;-76
2023/10/14 19:31:27;;;;;;;5.72;2.10;;;10.30;99.90;;;;;;5032894;28;20197;-76
2023/10/14 19:33:53;;;;;;;8.70;2.17;;;10.30;99.90;;;;;;5033398;28;20174;-75
2023/10/14 19:36:19;;;;;;;8.88;2.33;;;10.40;99.90;;;;;;5033966;28;20262;-75
2023/10/14 19:39:04;;;;;;;5.90;2.30;;;10.50;99.90;;;;;;5033072;28;20217;-75
2023/10/14 19:42:02;;;;;;;6.93;2.22;;;10.50;99.90;;;;;;5034023;28;20174;-75
2023/10/14 19:44:28;;;;;;;6.00;2.03;;;10.60;99.90;;;;;;5032763;28;20202;-75
2023/10/14 19:47:03;;;;;;;12.82;2.67;;;10.60;99.90;;;;;;5032961;28;20234;-75
2023/10/14 19:49:49;;;;;;;6.15;2.17;;;10.70;99.90;;;;;;5032786;28;20166;-75
2023/10/14 19:52:21;;;;;;;7.25;2.38;;;10.70;99.90;;;;;;5032712;28;20203;-75
2023/10/14 19:54:46;;;;;;;9.82;2.20;;;10.70;99.90;;;;;;5032610;28;20242;-75
2023/10/14 19:57:44;;;;;;;6.90;2.33;;;10.80;99.80;;;;;;5032740;28;20207;-75
2023/10/14 20:00:22;;;;;;;7.45;2.30;;;10.90;99.30;;;;;;5032735;28;20197;-76
2023/10/14 20:03:00;;;;;;;9.00;2.45;;;11.00;99.10;;;;;;5044472;28;20289;-76
2023/10/14 20:06:04;;;;;;;9.48;2.28;;;11.00;98.90;;;;;;5052251;28;20182;-76
2023/10/14 20:08:33;;;;;;;7.90;2.70;;;11.00;98.90;;;;;;5053104;28;20178;-76
2023/10/14 20:10:59;;;;;;;7.93;2.20;;;11.00;99.30;;;;;;5053525;28;20578;-76
2023/10/14 20:13:25;;;;;;;10.75;2.33;;;10.90;99.80;;;;;;5034718;28;20228;-76
2023/10/14 20:16:08;;;;;;;9.27;2.70;;;10.80;99.70;;;;;;5033196;28;20218;-75
2023/10/14 20:18:37;;;;;;;2.40;1.42;;;10.70;99.90;;;;;;5032253;28;20178;-75
2023/10/14 20:21:15;;;;;;;4.97;1.92;;;10.60;99.90;;;;;;5032733;28;20258;-75
2023/10/14 20:23:44;;;;;;;5.57;1.98;;;10.50;99.90;;;;;;5051180;28;20206;-75
2023/10/14 20:26:29;;;;;;;3.90;1.60;;;10.40;99.90;;;;;;5053534;28;20263;-75
2023/10/14 20:29:06;;;;;;;4.32;1.80;;;10.40;99.90;;;;;;5053247;28;20159;-75
2023/10/14 20:31:40;;;;;;;4.15;1.60;;;10.40;99.90;;;;;;5052622;28;20167;-75
2023/10/14 20:35:02;;;;;;;3.97;1.60;;;10.30;99.90;;;;;;5032743;28;20179;-75
2023/10/14 20:37:29;;;;;;;4.43;1.55;;;10.30;99.90;;;;;;5032295;28;20233;-76
2023/10/14 20:40:13;;;;;;;3.38;1.70;;;10.30;99.90;;;;;;5035406;28;20540;-76
2023/10/14 20:45:51;;;;;;;5.15;1.77;;;10.20;99.90;;;;;;5033639;28;20198;-76
2023/10/14 20:48:28;;;;;;;4.00;1.50;;;10.20;99.90;;;;;;5032581;28;20194;-76
2023/10/14 20:51:04;;;;;;;4.13;2.00;;;10.20;99.90;;;;;;5032382;28;20163;-76
2023/10/14 20:53:30;;;;;;;3.60;1.60;;;10.20;99.90;;;;;;5046027;28;20218;-75
2023/10/14 20:55:57;;;;;;;3.35;1.58;;;10.10;99.90;;;;;;5032058;28;20195;-75
2023/10/14 20:58:22;;;;;;;4.80;1.67;;;10.20;99.90;;;;;;5032132;28;20202;-75
2023/10/14 21:00:50;;;;;;;5.57;1.67;;;10.20;99.90;;;;;;5033184;28;20203;-75
2023/10/14 21:03:21;;;;;;;4.45;1.60;;;10.30;99.90;;;;;;5033331;28;20199;-75
2023/10/14 21:06:07;;;;;;;4.57;1.80;;;10.30;99.90;;;;;;5033435;28;20194;-75
2023/10/14 21:08:34;;;;;;;3.33;1.60;;;10.20;99.90;;;;;;5032701;28;20209;-75
2023/10/14 21:11:11;;;;;;;5.03;1.83;;;10.30;99.90;;;;;;5036011;28;20187;-76
2023/10/14 21:13:36;;;;;;;4.22;1.92;;;10.20;99.90;;;;;;5040630;28;20280;-76